sensor_id;sensor_type;location;lat;lon;timestamp;P1;durP1;ratioP1;P2;durP2;ratioP2
48578;SDS011;34357;51.948;6.132;2023-05-07T00:01:45;13.02;;;8.70;;
48578;SDS011;34357;51.948;6.132;2023-05-07T00:04:11;12.90;;;8.80;;
48578;SDS011;34357;51.948;6.132;2023-05-07T00:06:38;12.88;;;9.30;;
48578;SDS011;34357;51.948;6.132;2023-05-07T00:09:05;11.68;;;9.52;;
48578;SDS011;34357;51.948;6.132;2023-05-07T00:11:31;12.05;;;9.70;;
48578;SDS011;34357;51.948;6.132;2023-05-07T00:13:57;12.88;;;10.10;;
48578;SDS011;34357;51.948;6.132;2023-05-07T00:16:23;13.85;;;10.77;;
48578;SDS011;34357;51.948;6.132;2023-05-07T00:18:49;12.07;;;10.70;;
48578;SDS011;34357;51.948;6.132;2023-05-07T00:21:15;14.10;;;12.02;;
48578;SDS011;34357;51.948;6.132;2023-05-07T00:23:41;13.85;;;12.23;;
48578;SDS011;34357;51.948;6.132;2023-05-07T00:26:06;15.48;;;12.40;;
48578;SDS011;34357;51.948;6.132;2023-05-07T00:28:32;18.05;;;13.65;;
48578;SDS011;34357;51.948;6.132;2023-05-07T00:30:58;15.98;;;13.30;;
48578;SDS011;34357;51.948;6.132;2023-05-07T00:33:24;17.50;;;13.68;;
48578;SDS011;34357;51.948;6.132;2023-05-07T00:35:51;17.17;;;15.38;;
48578;SDS011;34357;51.948;6.132;2023-05-07T00:38:19;16.60;;;14.85;;
48578;SDS011;34357;51.948;6.132;2023-05-07T00:40:45;15.80;;;14.13;;
48578;SDS011;34357;51.948;6.132;2023-05-07T00:43:11;17.92;;;15.18;;
48578;SDS011;34357;51.948;6.132;2023-05-07T00:45:37;17.08;;;14.93;;
48578;SDS011;34357;51.948;6.132;2023-05-07T00:48:04;18.98;;;15.05;;
48578;SDS011;34357;51.948;6.132;2023-05-07T00:50:30;17.77;;;15.05;;
48578;SDS011;34357;51.948;6.132;2023-05-07T00:52:57;17.40;;;15.38;;
48578;SDS011;34357;51.948;6.132;2023-05-07T00:55:23;17.02;;;15.23;;
48578;SDS011;34357;51.948;6.132;2023-05-07T00:57:49;17.77;;;15.88;;
48578;SDS011;34357;51.948;6.132;2023-05-07T01:00:17;17.48;;;15.68;;
48578;SDS011;34357;51.948;6.132;2023-05-07T01:02:43;19.98;;;16.50;;
48578;SDS011;34357;51.948;6.132;2023-05-07T01:05:11;17.92;;;16.02;;
48578;SDS011;34357;51.948;6.132;2023-05-07T01:07:40;18.60;;;16.25;;
48578;SDS011;34357;51.948;6.132;2023-05-07T01:10:08;17.52;;;15.55;;
48578;SDS011;34357;51.948;6.132;2023-05-07T01:12:35;17.95;;;16.15;;
48578;SDS011;34357;51.948;6.132;2023-05-07T01:15:03;18.58;;;16.60;;
48578;SDS011;34357;51.948;6.132;2023-05-07T01:17:33;16.90;;;15.15;;
48578;SDS011;34357;51.948;6.132;2023-05-07T01:20:04;18.00;;;15.50;;
48578;SDS011;34357;51.948;6.132;2023-05-07T01:22:36;18.48;;;16.50;;
48578;SDS011;34357;51.948;6.132;2023-05-07T01:25:03;16.50;;;14.90;;
48578;SDS011;34357;51.948;6.132;2023-05-07T01:27:31;17.73;;;15.30;;
48578;SDS011;34357;51.948;6.132;2023-05-07T01:29:58;17.83;;;15.98;;
48578;SDS011;34357;51.948;6.132;2023-05-07T01:35:27;18.42;;;16.52;;
48578;SDS011;34357;51.948;6.132;2023-05-07T01:38:03;18.60;;;16.67;;
48578;SDS011;34357;51.948;6.132;2023-05-07T01:40:31;18.88;;;16.88;;
48578;SDS011;34357;51.948;6.132;2023-05-07T01:42:57;19.90;;;17.80;;
48578;SDS011;34357;51.948;6.132;2023-05-07T01:45:23;18.67;;;16.73;;
48578;SDS011;34357;51.948;6.132;2023-05-07T01:47:50;17.95;;;16.15;;
48578;SDS011;34357;51.948;6.132;2023-05-07T01:50:18;19.08;;;17.17;;
48578;SDS011;34357;51.948;6.132;2023-05-07T01:52:45;17.70;;;15.98;;
48578;SDS011;34357;51.948;6.132;2023-05-07T01:55:12;17.25;;;15.43;;
48578;SDS011;34357;51.948;6.132;2023-05-07T01:57:38;18.20;;;16.30;;
48578;SDS011;34357;51.948;6.132;2023-05-07T02:00:04;17.70;;;15.90;;
48578;SDS011;34357;51.948;6.132;2023-05-07T02:02:40;18.75;;;16.83;;
48578;SDS011;34357;51.948;6.132;2023-05-07T02:05:13;17.67;;;15.90;;
48578;SDS011;34357;51.948;6.132;2023-05-07T02:07:40;18.80;;;16.38;;
48578;SDS011;34357;51.948;6.132;2023-05-07T02:10:06;19.70;;;16.60;;
48578;SDS011;34357;51.948;6.132;2023-05-07T02:12:32;18.25;;;15.80;;
48578;SDS011;34357;51.948;6.132;2023-05-07T02:14:58;19.35;;;16.02;;
48578;SDS011;34357;51.948;6.132;2023-05-07T02:17:24;21.25;;;17.00;;
48578;SDS011;34357;51.948;6.132;2023-05-07T02:19:50;19.38;;;17.33;;
48578;SDS011;34357;51.948;6.132;2023-05-07T02:22:16;19.55;;;17.55;;
48578;SDS011;34357;51.948;6.132;2023-05-07T02:24:42;22.55;;;18.50;;
48578;SDS011;34357;51.948;6.132;2023-05-07T02:27:07;20.20;;;18.05;;
48578;SDS011;34357;51.948;6.132;2023-05-07T02:29:33;21.40;;;18.85;;
48578;SDS011;34357;51.948;6.132;2023-05-07T02:31:59;22.20;;;19.00;;
48578;SDS011;34357;51.948;6.132;2023-05-07T02:34:25;25.23;;;19.13;;
48578;SDS011;34357;51.948;6.132;2023-05-07T02:36:50;21.48;;;18.70;;
48578;SDS011;34357;51.948;6.132;2023-05-07T02:39:20;21.65;;;18.80;;
48578;SDS011;34357;51.948;6.132;2023-05-07T02:41:46;23.25;;;19.95;;
48578;SDS011;34357;51.948;6.132;2023-05-07T02:44:11;21.65;;;19.48;;
48578;SDS011;34357;51.948;6.132;2023-05-07T02:46:38;24.70;;;20.17;;
48578;SDS011;34357;51.948;6.132;2023-05-07T02:49:07;22.50;;;19.95;;
48578;SDS011;34357;51.948;6.132;2023-05-07T02:51:33;25.10;;;20.45;;
48578;SDS011;34357;51.948;6.132;2023-05-07T02:54:02;22.33;;;19.98;;
48578;SDS011;34357;51.948;6.132;2023-05-07T02:56:28;27.45;;;22.08;;
48578;SDS011;34357;51.948;6.132;2023-05-07T02:58:55;23.38;;;20.88;;
48578;SDS011;34357;51.948;6.132;2023-05-07T03:01:24;24.38;;;21.88;;
48578;SDS011;34357;51.948;6.132;2023-05-07T03:03:58;23.80;;;21.27;;
48578;SDS011;34357;51.948;6.132;2023-05-07T03:06:24;23.83;;;21.42;;
48578;SDS011;34357;51.948;6.132;2023-05-07T03:08:49;24.90;;;22.10;;
48578;SDS011;34357;51.948;6.132;2023-05-07T03:11:15;24.67;;;22.02;;
48578;SDS011;34357;51.948;6.132;2023-05-07T03:13:41;27.10;;;24.17;;
48578;SDS011;34357;51.948;6.132;2023-05-07T03:16:07;25.75;;;23.02;;
48578;SDS011;34357;51.948;6.132;2023-05-07T03:18:32;27.35;;;23.85;;
48578;SDS011;34357;51.948;6.132;2023-05-07T03:20:58;26.33;;;23.52;;
48578;SDS011;34357;51.948;6.132;2023-05-07T03:23:24;26.60;;;23.90;;
48578;SDS011;34357;51.948;6.132;2023-05-07T03:25:50;26.27;;;22.27;;
48578;SDS011;34357;51.948;6.132;2023-05-07T03:28:16;26.45;;;23.23;;
48578;SDS011;34357;51.948;6.132;2023-05-07T03:33:13;25.33;;;22.67;;
48578;SDS011;34357;51.948;6.132;2023-05-07T03:35:39;25.83;;;23.08;;
48578;SDS011;34357;51.948;6.132;2023-05-07T03:38:05;25.65;;;22.90;;
48578;SDS011;34357;51.948;6.132;2023-05-07T03:40:34;24.85;;;22.25;;
48578;SDS011;34357;51.948;6.132;2023-05-07T03:43:00;27.38;;;23.85;;
48578;SDS011;34357;51.948;6.132;2023-05-07T03:45:28;25.90;;;23.27;;
48578;SDS011;34357;51.948;6.132;2023-05-07T03:48:04;25.75;;;23.17;;
48578;SDS011;34357;51.948;6.132;2023-05-07T03:50:30;24.88;;;22.20;;
48578;SDS011;34357;51.948;6.132;2023-05-07T03:52:56;24.88;;;22.25;;
48578;SDS011;34357;51.948;6.132;2023-05-07T03:55:23;24.52;;;22.05;;
48578;SDS011;34357;51.948;6.132;2023-05-07T03:57:53;24.20;;;21.70;;
48578;SDS011;34357;51.948;6.132;2023-05-07T04:00:19;25.23;;;22.20;;
48578;SDS011;34357;51.948;6.132;2023-05-07T04:02:46;24.95;;;22.25;;
48578;SDS011;34357;51.948;6.132;2023-05-07T04:05:14;24.08;;;21.35;;
48578;SDS011;34357;51.948;6.132;2023-05-07T04:07:42;25.60;;;22.15;;
48578;SDS011;34357;51.948;6.132;2023-05-07T04:10:09;25.20;;;22.63;;
48578;SDS011;34357;51.948;6.132;2023-05-07T04:12:38;23.90;;;20.75;;
48578;SDS011;34357;51.948;6.132;2023-05-07T04:15:05;24.77;;;22.17;;
48578;SDS011;34357;51.948;6.132;2023-05-07T04:17:32;24.98;;;22.40;;
48578;SDS011;34357;51.948;6.132;2023-05-07T04:19:59;25.33;;;21.90;;
48578;SDS011;34357;51.948;6.132;2023-05-07T04:22:25;24.48;;;21.67;;
48578;SDS011;34357;51.948;6.132;2023-05-07T04:24:51;24.75;;;22.20;;
48578;SDS011;34357;51.948;6.132;2023-05-07T04:27:17;24.00;;;21.48;;
48578;SDS011;34357;51.948;6.132;2023-05-07T04:29:43;23.15;;;20.95;;
48578;SDS011;34357;51.948;6.132;2023-05-07T04:32:13;24.42;;;21.92;;
48578;SDS011;34357;51.948;6.132;2023-05-07T04:34:39;23.70;;;21.38;;
48578;SDS011;34357;51.948;6.132;2023-05-07T04:37:06;23.73;;;21.33;;
48578;SDS011;34357;51.948;6.132;2023-05-07T04:39:32;23.67;;;19.98;;
48578;SDS011;34357;51.948;6.132;2023-05-07T04:41:58;23.23;;;20.92;;
48578;SDS011;34357;51.948;6.132;2023-05-07T04:44:24;23.00;;;20.70;;
48578;SDS011;34357;51.948;6.132;2023-05-07T04:46:50;25.38;;;20.73;;
48578;SDS011;34357;51.948;6.132;2023-05-07T04:49:15;22.08;;;19.67;;
48578;SDS011;34357;51.948;6.132;2023-05-07T04:51:42;22.10;;;19.73;;
48578;SDS011;34357;51.948;6.132;2023-05-07T04:54:09;22.63;;;20.10;;
48578;SDS011;34357;51.948;6.132;2023-05-07T04:56:35;21.65;;;19.50;;
48578;SDS011;34357;51.948;6.132;2023-05-07T04:59:02;21.08;;;18.85;;
48578;SDS011;34357;51.948;6.132;2023-05-07T05:01:28;20.88;;;18.70;;
48578;SDS011;34357;51.948;6.132;2023-05-07T05:03:54;22.42;;;20.13;;
48578;SDS011;34357;51.948;6.132;2023-05-07T05:06:20;20.77;;;18.67;;
48578;SDS011;34357;51.948;6.132;2023-05-07T05:08:46;21.23;;;18.98;;
48578;SDS011;34357;51.948;6.132;2023-05-07T05:11:12;21.15;;;18.95;;
48578;SDS011;34357;51.948;6.132;2023-05-07T05:13:38;22.17;;;19.88;;
48578;SDS011;34357;51.948;6.132;2023-05-07T05:16:10;22.95;;;19.58;;
48578;SDS011;34357;51.948;6.132;2023-05-07T05:18:36;22.63;;;20.42;;
48578;SDS011;34357;51.948;6.132;2023-05-07T05:21:03;23.55;;;20.73;;
48578;SDS011;34357;51.948;6.132;2023-05-07T05:23:30;22.63;;;20.17;;
48578;SDS011;34357;51.948;6.132;2023-05-07T05:25:56;21.80;;;19.70;;
48578;SDS011;34357;51.948;6.132;2023-05-07T05:28:24;24.27;;;21.13;;
48578;SDS011;34357;51.948;6.132;2023-05-07T05:30:50;23.30;;;20.90;;
48578;SDS011;34357;51.948;6.132;2023-05-07T05:33:16;24.00;;;21.60;;
48578;SDS011;34357;51.948;6.132;2023-05-07T05:35:42;23.52;;;21.17;;
48578;SDS011;34357;51.948;6.132;2023-05-07T05:38:10;23.52;;;20.90;;
48578;SDS011;34357;51.948;6.132;2023-05-07T05:40:37;23.17;;;20.77;;
48578;SDS011;34357;51.948;6.132;2023-05-07T05:43:03;23.60;;;21.10;;
48578;SDS011;34357;51.948;6.132;2023-05-07T05:45:30;22.85;;;20.52;;
48578;SDS011;34357;51.948;6.132;2023-05-07T05:47:56;22.13;;;19.92;;
48578;SDS011;34357;51.948;6.132;2023-05-07T05:50:22;22.27;;;20.00;;
48578;SDS011;34357;51.948;6.132;2023-05-07T05:52:48;23.95;;;21.55;;
48578;SDS011;34357;51.948;6.132;2023-05-07T05:55:16;23.15;;;20.67;;
48578;SDS011;34357;51.948;6.132;2023-05-07T05:57:42;23.98;;;21.33;;
48578;SDS011;34357;51.948;6.132;2023-05-07T06:00:08;23.70;;;21.20;;
48578;SDS011;34357;51.948;6.132;2023-05-07T06:02:43;22.33;;;20.13;;
48578;SDS011;34357;51.948;6.132;2023-05-07T06:05:11;25.52;;;20.55;;
48578;SDS011;34357;51.948;6.132;2023-05-07T06:07:38;22.38;;;20.15;;
48578;SDS011;34357;51.948;6.132;2023-05-07T06:10:04;22.65;;;20.45;;
48578;SDS011;34357;51.948;6.132;2023-05-07T06:12:31;21.98;;;19.88;;
48578;SDS011;34357;51.948;6.132;2023-05-07T06:14:57;24.88;;;20.50;;
48578;SDS011;34357;51.948;6.132;2023-05-07T06:17:23;24.90;;;20.55;;
48578;SDS011;34357;51.948;6.132;2023-05-07T06:19:49;22.25;;;19.90;;
48578;SDS011;34357;51.948;6.132;2023-05-07T06:22:18;23.95;;;20.83;;
48578;SDS011;34357;51.948;6.132;2023-05-07T06:24:44;22.00;;;19.67;;
48578;SDS011;34357;51.948;6.132;2023-05-07T06:27:09;23.40;;;19.40;;
48578;SDS011;34357;51.948;6.132;2023-05-07T06:29:36;22.92;;;20.50;;
48578;SDS011;34357;51.948;6.132;2023-05-07T06:34:34;24.15;;;20.40;;
48578;SDS011;34357;51.948;6.132;2023-05-07T06:37:01;22.23;;;20.02;;
48578;SDS011;34357;51.948;6.132;2023-05-07T06:39:38;25.20;;;22.58;;
48578;SDS011;34357;51.948;6.132;2023-05-07T06:42:04;23.73;;;21.25;;
48578;SDS011;34357;51.948;6.132;2023-05-07T06:44:31;25.13;;;22.23;;
48578;SDS011;34357;51.948;6.132;2023-05-07T06:47:12;25.10;;;21.35;;
48578;SDS011;34357;51.948;6.132;2023-05-07T06:49:39;23.83;;;21.40;;
48578;SDS011;34357;51.948;6.132;2023-05-07T06:52:04;24.08;;;21.58;;
48578;SDS011;34357;51.948;6.132;2023-05-07T06:54:30;23.85;;;21.40;;
48578;SDS011;34357;51.948;6.132;2023-05-07T06:56:57;23.27;;;20.77;;
48578;SDS011;34357;51.948;6.132;2023-05-07T06:59:25;23.45;;;21.10;;
48578;SDS011;34357;51.948;6.132;2023-05-07T07:01:51;24.38;;;21.85;;
48578;SDS011;34357;51.948;6.132;2023-05-07T07:04:17;26.88;;;22.55;;
48578;SDS011;34357;51.948;6.132;2023-05-07T07:06:48;24.40;;;21.77;;
48578;SDS011;34357;51.948;6.132;2023-05-07T07:09:14;23.38;;;21.00;;
48578;SDS011;34357;51.948;6.132;2023-05-07T07:11:40;25.42;;;21.80;;
48578;SDS011;34357;51.948;6.132;2023-05-07T07:14:06;25.67;;;22.05;;
48578;SDS011;34357;51.948;6.132;2023-05-07T07:16:38;25.10;;;21.38;;
48578;SDS011;34357;51.948;6.132;2023-05-07T07:19:04;24.75;;;21.67;;
48578;SDS011;34357;51.948;6.132;2023-05-07T07:21:30;22.52;;;20.23;;
48578;SDS011;34357;51.948;6.132;2023-05-07T07:23:57;25.00;;;20.38;;
48578;SDS011;34357;51.948;6.132;2023-05-07T07:26:24;22.67;;;20.30;;
48578;SDS011;34357;51.948;6.132;2023-05-07T07:28:50;21.73;;;19.40;;
48578;SDS011;34357;51.948;6.132;2023-05-07T07:31:19;24.67;;;20.80;;
48578;SDS011;34357;51.948;6.132;2023-05-07T07:33:47;23.77;;;20.48;;
48578;SDS011;34357;51.948;6.132;2023-05-07T07:36:14;27.77;;;19.73;;
48578;SDS011;34357;51.948;6.132;2023-05-07T07:38:41;21.95;;;18.98;;
48578;SDS011;34357;51.948;6.132;2023-05-07T07:41:08;22.30;;;19.90;;
48578;SDS011;34357;51.948;6.132;2023-05-07T07:43:34;21.75;;;19.55;;
48578;SDS011;34357;51.948;6.132;2023-05-07T07:46:01;22.08;;;19.67;;
48578;SDS011;34357;51.948;6.132;2023-05-07T07:48:27;21.90;;;19.55;;
48578;SDS011;34357;51.948;6.132;2023-05-07T07:50:53;23.10;;;19.67;;
48578;SDS011;34357;51.948;6.132;2023-05-07T07:53:20;20.88;;;18.73;;
48578;SDS011;34357;51.948;6.132;2023-05-07T07:55:46;21.02;;;18.85;;
48578;SDS011;34357;51.948;6.132;2023-05-07T07:58:15;20.25;;;18.23;;
48578;SDS011;34357;51.948;6.132;2023-05-07T08:00:41;20.88;;;18.60;;
48578;SDS011;34357;51.948;6.132;2023-05-07T08:03:10;21.10;;;18.90;;
48578;SDS011;34357;51.948;6.132;2023-05-07T08:05:39;22.40;;;18.83;;
48578;SDS011;34357;51.948;6.132;2023-05-07T08:08:06;22.02;;;19.15;;
48578;SDS011;34357;51.948;6.132;2023-05-07T08:10:33;23.55;;;19.30;;
48578;SDS011;34357;51.948;6.132;2023-05-07T08:13:08;21.45;;;18.58;;
48578;SDS011;34357;51.948;6.132;2023-05-07T08:15:35;21.65;;;18.58;;
48578;SDS011;34357;51.948;6.132;2023-05-07T08:18:02;22.52;;;16.98;;
48578;SDS011;34357;51.948;6.132;2023-05-07T08:20:29;18.20;;;16.27;;
48578;SDS011;34357;51.948;6.132;2023-05-07T08:22:56;19.95;;;16.58;;
48578;SDS011;34357;51.948;6.132;2023-05-07T08:25:22;21.90;;;16.38;;
48578;SDS011;34357;51.948;6.132;2023-05-07T08:27:48;18.77;;;16.05;;
48578;SDS011;34357;51.948;6.132;2023-05-07T08:30:15;17.95;;;16.08;;
48578;SDS011;34357;51.948;6.132;2023-05-07T08:32:41;19.63;;;15.20;;
48578;SDS011;34357;51.948;6.132;2023-05-07T08:35:07;19.50;;;15.45;;
48578;SDS011;34357;51.948;6.132;2023-05-07T08:37:33;17.63;;;15.48;;
48578;SDS011;34357;51.948;6.132;2023-05-07T08:40:00;20.75;;;14.88;;
48578;SDS011;34357;51.948;6.132;2023-05-07T08:42:30;17.58;;;14.18;;
48578;SDS011;34357;51.948;6.132;2023-05-07T08:45:00;15.38;;;13.30;;
48578;SDS011;34357;51.948;6.132;2023-05-07T08:47:34;16.02;;;14.00;;
48578;SDS011;34357;51.948;6.132;2023-05-07T08:50:05;15.13;;;13.52;;
48578;SDS011;34357;51.948;6.132;2023-05-07T08:52:32;14.60;;;12.65;;
48578;SDS011;34357;51.948;6.132;2023-05-07T08:54:58;14.02;;;12.60;;
48578;SDS011;34357;51.948;6.132;2023-05-07T08:57:25;16.33;;;13.75;;
48578;SDS011;34357;51.948;6.132;2023-05-07T08:59:51;15.30;;;12.70;;
48578;SDS011;34357;51.948;6.132;2023-05-07T09:02:18;15.93;;;13.00;;
48578;SDS011;34357;51.948;6.132;2023-05-07T09:04:44;13.75;;;11.88;;
48578;SDS011;34357;51.948;6.132;2023-05-07T09:07:10;14.35;;;11.35;;
48578;SDS011;34357;51.948;6.132;2023-05-07T09:09:40;12.77;;;11.15;;
48578;SDS011;34357;51.948;6.132;2023-05-07T09:12:07;14.63;;;12.25;;
48578;SDS011;34357;51.948;6.132;2023-05-07T09:14:34;14.50;;;11.82;;
48578;SDS011;34357;51.948;6.132;2023-05-07T09:17:02;14.48;;;11.45;;
48578;SDS011;34357;51.948;6.132;2023-05-07T09:19:28;11.98;;;10.55;;
48578;SDS011;34357;51.948;6.132;2023-05-07T09:21:58;13.95;;;11.73;;
48578;SDS011;34357;51.948;6.132;2023-05-07T09:24:26;14.07;;;11.90;;
48578;SDS011;34357;51.948;6.132;2023-05-07T09:26:54;11.63;;;10.40;;
48578;SDS011;34357;51.948;6.132;2023-05-07T09:29:20;15.35;;;12.07;;
48578;SDS011;34357;51.948;6.132;2023-05-07T09:31:46;13.20;;;11.80;;
48578;SDS011;34357;51.948;6.132;2023-05-07T09:34:14;12.75;;;11.32;;
48578;SDS011;34357;51.948;6.132;2023-05-07T09:36:43;12.10;;;10.48;;
48578;SDS011;34357;51.948;6.132;2023-05-07T09:39:10;12.55;;;10.57;;
48578;SDS011;34357;51.948;6.132;2023-05-07T09:41:43;13.18;;;10.57;;
48578;SDS011;34357;51.948;6.132;2023-05-07T09:44:15;13.20;;;11.23;;
48578;SDS011;34357;51.948;6.132;2023-05-07T09:46:46;15.48;;;10.55;;
48578;SDS011;34357;51.948;6.132;2023-05-07T09:49:23;13.25;;;10.85;;
48578;SDS011;34357;51.948;6.132;2023-05-07T09:51:53;13.05;;;11.57;;
48578;SDS011;34357;51.948;6.132;2023-05-07T09:54:22;13.32;;;10.75;;
48578;SDS011;34357;51.948;6.132;2023-05-07T09:56:51;10.95;;;9.73;;
48578;SDS011;34357;51.948;6.132;2023-05-07T09:59:21;12.05;;;10.77;;
48578;SDS011;34357;51.948;6.132;2023-05-07T10:01:48;14.70;;;10.80;;
48578;SDS011;34357;51.948;6.132;2023-05-07T10:04:15;9.60;;;8.45;;
48578;SDS011;34357;51.948;6.132;2023-05-07T10:06:44;9.93;;;7.60;;
48578;SDS011;34357;51.948;6.132;2023-05-07T10:09:10;11.25;;;7.35;;
48578;SDS011;34357;51.948;6.132;2023-05-07T10:11:37;10.23;;;7.28;;
48578;SDS011;34357;51.948;6.132;2023-05-07T10:14:03;8.75;;;6.78;;
48578;SDS011;34357;51.948;6.132;2023-05-07T10:16:32;11.63;;;7.70;;
48578;SDS011;34357;51.948;6.132;2023-05-07T10:19:02;12.30;;;7.47;;
48578;SDS011;34357;51.948;6.132;2023-05-07T10:21:30;9.73;;;7.30;;
48578;SDS011;34357;51.948;6.132;2023-05-07T10:24:03;8.18;;;7.22;;
48578;SDS011;34357;51.948;6.132;2023-05-07T10:26:51;9.97;;;6.93;;
48578;SDS011;34357;51.948;6.132;2023-05-07T10:34:23;9.27;;;5.78;;
48578;SDS011;34357;51.948;6.132;2023-05-07T10:36:53;6.30;;;4.53;;
48578;SDS011;34357;51.948;6.132;2023-05-07T10:39:22;7.95;;;6.95;;
48578;SDS011;34357;51.948;6.132;2023-05-07T10:41:49;5.38;;;4.25;;
48578;SDS011;34357;51.948;6.132;2023-05-07T10:44:28;6.50;;;4.82;;
48578;SDS011;34357;51.948;6.132;2023-05-07T10:47:08;5.18;;;4.68;;
48578;SDS011;34357;51.948;6.132;2023-05-07T10:50:22;7.18;;;6.35;;
48578;SDS011;34357;51.948;6.132;2023-05-07T10:52:34;8.73;;;7.43;;
48578;SDS011;34357;51.948;6.132;2023-05-07T11:00:48;8.88;;;7.20;;
48578;SDS011;34357;51.948;6.132;2023-05-07T11:03:24;7.88;;;7.07;;
48578;SDS011;34357;51.948;6.132;2023-05-07T11:08:58;9.95;;;7.78;;
48578;SDS011;34357;51.948;6.132;2023-05-07T11:11:47;9.05;;;6.82;;
48578;SDS011;34357;51.948;6.132;2023-05-07T11:17:12;9.35;;;7.55;;
48578;SDS011;34357;51.948;6.132;2023-05-07T11:19:53;9.48;;;7.32;;
48578;SDS011;34357;51.948;6.132;2023-05-07T11:22:44;8.50;;;7.10;;
48578;SDS011;34357;51.948;6.132;2023-05-07T11:25:31;9.50;;;7.75;;
48578;SDS011;34357;51.948;6.132;2023-05-07T11:28:07;10.23;;;7.90;;
48578;SDS011;34357;51.948;6.132;2023-05-07T11:30:42;10.20;;;8.02;;
48578;SDS011;34357;51.948;6.132;2023-05-07T11:33:10;8.80;;;7.90;;
48578;SDS011;34357;51.948;6.132;2023-05-07T11:35:38;9.77;;;8.52;;
48578;SDS011;34357;51.948;6.132;2023-05-07T11:38:07;10.20;;;8.77;;
48578;SDS011;34357;51.948;6.132;2023-05-07T11:40:34;11.50;;;8.70;;
48578;SDS011;34357;51.948;6.132;2023-05-07T11:43:13;10.77;;;9.00;;
48578;SDS011;34357;51.948;6.132;2023-05-07T11:45:39;10.38;;;9.05;;
48578;SDS011;34357;51.948;6.132;2023-05-07T11:48:04;11.43;;;9.45;;
48578;SDS011;34357;51.948;6.132;2023-05-07T11:50:30;14.70;;;9.73;;
48578;SDS011;34357;51.948;6.132;2023-05-07T11:52:56;9.80;;;8.55;;
48578;SDS011;34357;51.948;6.132;2023-05-07T11:55:23;10.68;;;8.15;;
48578;SDS011;34357;51.948;6.132;2023-05-07T11:57:51;10.55;;;7.65;;
48578;SDS011;34357;51.948;6.132;2023-05-07T12:00:17;8.77;;;7.88;;
48578;SDS011;34357;51.948;6.132;2023-05-07T12:02:44;11.63;;;8.30;;
48578;SDS011;34357;51.948;6.132;2023-05-07T12:05:10;8.52;;;7.65;;
48578;SDS011;34357;51.948;6.132;2023-05-07T12:07:37;10.05;;;8.48;;
48578;SDS011;34357;51.948;6.132;2023-05-07T12:10:05;8.90;;;8.00;;
48578;SDS011;34357;51.948;6.132;2023-05-07T12:12:37;9.07;;;8.10;;
48578;SDS011;34357;51.948;6.132;2023-05-07T12:15:04;9.63;;;8.27;;
48578;SDS011;34357;51.948;6.132;2023-05-07T12:17:30;9.25;;;8.32;;
48578;SDS011;34357;51.948;6.132;2023-05-07T12:19:56;9.88;;;7.90;;
48578;SDS011;34357;51.948;6.132;2023-05-07T12:22:22;9.20;;;8.30;;
48578;SDS011;34357;51.948;6.132;2023-05-07T12:24:49;9.13;;;8.18;;
48578;SDS011;34357;51.948;6.132;2023-05-07T12:27:21;9.80;;;8.23;;
48578;SDS011;34357;51.948;6.132;2023-05-07T12:29:48;10.75;;;7.60;;
48578;SDS011;34357;51.948;6.132;2023-05-07T12:32:18;10.73;;;7.90;;
48578;SDS011;34357;51.948;6.132;2023-05-07T12:34:45;8.82;;;7.93;;
48578;SDS011;34357;51.948;6.132;2023-05-07T12:37:11;11.07;;;7.88;;
48578;SDS011;34357;51.948;6.132;2023-05-07T12:39:38;8.50;;;7.65;;
48578;SDS011;34357;51.948;6.132;2023-05-07T12:42:09;12.70;;;8.75;;
48578;SDS011;34357;51.948;6.132;2023-05-07T12:44:51;7.80;;;6.90;;
48578;SDS011;34357;51.948;6.132;2023-05-07T12:47:17;10.20;;;6.88;;
48578;SDS011;34357;51.948;6.132;2023-05-07T12:49:43;9.52;;;7.75;;
48578;SDS011;34357;51.948;6.132;2023-05-07T12:52:11;8.77;;;7.88;;
48578;SDS011;34357;51.948;6.132;2023-05-07T12:54:37;9.23;;;7.80;;
48578;SDS011;34357;51.948;6.132;2023-05-07T12:57:10;9.52;;;8.35;;
48578;SDS011;34357;51.948;6.132;2023-05-07T12:59:36;8.70;;;7.75;;
48578;SDS011;34357;51.948;6.132;2023-05-07T13:02:04;10.02;;;7.38;;
48578;SDS011;34357;51.948;6.132;2023-05-07T13:04:32;10.25;;;8.13;;
48578;SDS011;34357;51.948;6.132;2023-05-07T13:06:58;9.68;;;7.72;;
48578;SDS011;34357;51.948;6.132;2023-05-07T13:09:25;14.60;;;9.30;;
48578;SDS011;34357;51.948;6.132;2023-05-07T13:11:51;15.85;;;8.88;;
48578;SDS011;34357;51.948;6.132;2023-05-07T13:14:16;10.73;;;9.10;;
48578;SDS011;34357;51.948;6.132;2023-05-07T13:16:42;14.82;;;8.73;;
48578;SDS011;34357;51.948;6.132;2023-05-07T13:19:09;11.15;;;9.10;;
48578;SDS011;34357;51.948;6.132;2023-05-07T13:21:35;12.15;;;8.95;;
48578;SDS011;34357;51.948;6.132;2023-05-07T13:24:01;10.98;;;9.18;;
48578;SDS011;34357;51.948;6.132;2023-05-07T13:26:27;10.85;;;9.35;;
48578;SDS011;34357;51.948;6.132;2023-05-07T13:28:53;15.88;;;10.10;;
48578;SDS011;34357;51.948;6.132;2023-05-07T13:31:19;11.77;;;9.20;;
48578;SDS011;34357;51.948;6.132;2023-05-07T13:33:46;13.88;;;10.10;;
48578;SDS011;34357;51.948;6.132;2023-05-07T13:36:12;12.93;;;10.32;;
48578;SDS011;34357;51.948;6.132;2023-05-07T13:38:38;14.68;;;11.60;;
48578;SDS011;34357;51.948;6.132;2023-05-07T13:41:04;12.63;;;11.27;;
48578;SDS011;34357;51.948;6.132;2023-05-07T13:43:30;14.55;;;12.48;;
48578;SDS011;34357;51.948;6.132;2023-05-07T13:45:57;14.90;;;13.25;;
48578;SDS011;34357;51.948;6.132;2023-05-07T13:48:23;14.77;;;13.15;;
48578;SDS011;34357;51.948;6.132;2023-05-07T13:50:49;15.75;;;12.88;;
48578;SDS011;34357;51.948;6.132;2023-05-07T13:53:15;17.40;;;13.30;;
48578;SDS011;34357;51.948;6.132;2023-05-07T13:55:43;18.08;;;13.73;;
48578;SDS011;34357;51.948;6.132;2023-05-07T13:58:09;15.15;;;13.40;;
48578;SDS011;34357;51.948;6.132;2023-05-07T14:00:35;16.63;;;14.10;;
48578;SDS011;34357;51.948;6.132;2023-05-07T14:03:01;14.82;;;13.25;;
48578;SDS011;34357;51.948;6.132;2023-05-07T14:05:27;16.63;;;13.23;;
48578;SDS011;34357;51.948;6.132;2023-05-07T14:07:53;15.00;;;12.70;;
48578;SDS011;34357;51.948;6.132;2023-05-07T14:10:19;16.30;;;12.98;;
48578;SDS011;34357;51.948;6.132;2023-05-07T14:12:45;14.60;;;10.15;;
48578;SDS011;34357;51.948;6.132;2023-05-07T14:15:13;10.07;;;7.63;;
48578;SDS011;34357;51.948;6.132;2023-05-07T14:17:39;8.82;;;6.32;;
48578;SDS011;34357;51.948;6.132;2023-05-07T14:20:04;9.20;;;6.45;;
48578;SDS011;34357;51.948;6.132;2023-05-07T14:22:32;9.82;;;6.82;;
48578;SDS011;34357;51.948;6.132;2023-05-07T14:24:58;10.68;;;8.25;;
48578;SDS011;34357;51.948;6.132;2023-05-07T14:27:24;10.07;;;7.50;;
48578;SDS011;34357;51.948;6.132;2023-05-07T14:29:49;10.60;;;7.95;;
48578;SDS011;34357;51.948;6.132;2023-05-07T14:32:19;9.65;;;7.32;;
48578;SDS011;34357;51.948;6.132;2023-05-07T14:34:46;9.75;;;7.90;;
48578;SDS011;34357;51.948;6.132;2023-05-07T14:37:12;13.80;;;10.50;;
48578;SDS011;34357;51.948;6.132;2023-05-07T14:39:38;14.57;;;13.05;;
48578;SDS011;34357;51.948;6.132;2023-05-07T14:42:04;14.13;;;12.20;;
48578;SDS011;34357;51.948;6.132;2023-05-07T14:44:30;16.30;;;13.10;;
48578;SDS011;34357;51.948;6.132;2023-05-07T14:46:56;18.40;;;12.57;;
48578;SDS011;34357;51.948;6.132;2023-05-07T14:49:22;10.02;;;6.50;;
48578;SDS011;34357;51.948;6.132;2023-05-07T14:51:49;6.43;;;4.38;;
48578;SDS011;34357;51.948;6.132;2023-05-07T14:54:15;7.97;;;5.07;;